This is the latest recevied weather packets stored in our database for station/object K6CED. If no packets are shown the sender has not sent any weather packets the latest 10 day(s).
| Time | Temp. | Humidity | Pressure | Rain* | Wind** | Luminosity | Snow |
|---|---|---|---|---|---|---|---|
| 1787849474 | 31.67° C | 52% | 1015.6 hPa | 0 mm | - | 654 W/m² | - |
| 1787849173 | 31.67° C | 52% | 1015.7 hPa | 0 mm | - | 643 W/m² | - |
| 1787848872 | 30.56° C | 54% | 1015.9 hPa | 0 mm | - | 619 W/m² | - |
| 1787848567 | 30.56° C | 54% | 1016 hPa | 0 mm | - | 531 W/m² | - |
| 1787848266 | 29.44° C | 58% | 1015.9 hPa | 0 mm | - | 495 W/m² | - |
| 1787847961 | 28.89° C | 59% | 1016 hPa | 0 mm | - | 303 W/m² | - |
| 1787847661 | 28.33° C | 60% | 1015.8 hPa | 0 mm | - | 184 W/m² | - |
| 1787847356 | 28.33° C | 62% | 1015.9 hPa | 0 mm | - | 149 W/m² | - |
| 1787847052 | 28.33° C | 61% | 1016.1 hPa | 0 mm | - | 134 W/m² | - |
| 1787846748 | 28.33° C | 61% | 1016.1 hPa | 0 mm | - | 129 W/m² | - |
| 1787846443 | 28.33° C | 61% | 1016 hPa | 0 mm | - | 149 W/m² | - |
| 1787846139 | 28.89° C | 62% | 1016.2 hPa | 0 mm | - | 165 W/m² | - |
| 1787845834 | 29.44° C | 59% | 1015.8 hPa | 0 mm | - | 217 W/m² | - |
| 1787845530 | 28.89° C | 61% | 1016 hPa | 0 mm | - | 405 W/m² | - |
| 1787845225 | 28.33° C | 63% | 1015.8 hPa | 0 mm | - | 301 W/m² | - |
| 1787844921 | 27.78° C | 64% | 1015.8 hPa | 0 mm | - | 305 W/m² | - |
| 1787844620 | 27.78° C | 66% | 1016.1 hPa | 0 mm | - | 320 W/m² | - |
| 1787844315 | 27.22° C | 68% | 1015.8 hPa | 0 mm | - | 395 W/m² | - |
| 1787844015 | 26.67° C | 71% | 1015.9 hPa | 0 mm | - | 228 W/m² | - |
| 1787843715 | 26.11° C | 72% | 1016.1 hPa | 0 mm | - | 170 W/m² | - |
| 1787843410 | 26.11° C | 73% | 1015.9 hPa | 0 mm | - | 138 W/m² | - |
| 1787843107 | 25.56° C | 74% | 1016 hPa | 0 mm | - | 132 W/m² | - |
| 1787842806 | 25.56° C | 74% | 1016 hPa | 0 mm | - | 131 W/m² | - |
| 1787842501 | 25.56° C | 75% | 1015.7 hPa | 0 mm | - | 140 W/m² | - |
| 1787842200 | 25.56° C | 75% | 1015.8 hPa | 0 mm | - | 139 W/m² | - |
* Rain latest hour (hover to see other rain measurements)
** Current wind speed in m/s (hover to see current wind gust speed)